Al Kharsaah — C6VG3 — position and weather

sailwx.info

Track history (hours):
 
Tides and Currents Weather Stations Pressure Air Temp Water Temp Dewpoint Dewpoint Depression Visibility Wind Speed Wind Dir Waves Ship Positions

Al Kharsaah

Last reported at 2014-Jul-24 06:08 UTC. Time now 2014-Aug-01 05:50 UTC.
Position N 30°20' E 032°22'.

Length 315 m; draft 9.4 m.

Type: Ship (hazmat cat D). MMSI: 309333000.

Date/timePositionNaut miles runAvg speedWind from/ knotsBaromVisibWave heightAir tempDewpointWater temp
2014-Jul-24 06:08N 30°20' E 032°22'30 5.1
2014-Jul-24 00:16N 30°50' E 032°19'14 8.4
2014-Jul-23 22:33N 31°04' E 032°19'10 7.6
2014-Jul-23 21:11N 31°15' E 032°21'710.9
2014-Jul-23 20:33N 31°21' E 032°23'5 2.4
2014-Jul-23 18:29N 31°24' E 032°18'0 0.0
2014-Jul-23 14:06N 31°24' E 032°18'0 0.0
2014-Jul-23 13:32N 31°24' E 032°18'0 0.0
2014-Jul-23 12:31N 31°24' E 032°18'0 0.2
2014-Jul-23 11:31N 31°24' E 032°18'3 2.7
2014-Jul-23 10:32N 31°26' E 032°16'1313.6
2014-Jul-23 09:33N 31°37' E 032°07'1717.3
2014-Jul-23 08:33N 31°49' E 031°52'1817.5
2014-Jul-23 07:33N 31°53' E 031°32'1717.3
2014-Jul-23 06:33N 31°59' E 031°13'1717.5
2014-Jul-23 05:33N 32°04' E 030°53'1817.7
2014-Jul-23 04:33N 32°10' E 030°33'1717.6
2014-Jul-23 03:33N 32°15' E 030°14'1717.1
2014-Jul-23 02:33N 32°20' E 029°54'1717.0
2014-Jul-23 01:33N 32°25' E 029°35'1716.6
2014-Jul-23 00:33N 32°29' E 029°16'1616.3
2014-Jul-22 23:33N 32°35' E 028°58'1615.9
2014-Jul-22 22:33N 32°40' E 028°40'1616.0
2014-Jul-22 21:33N 32°44' E 028°21'1616.0
2014-Jul-22 20:33N 32°49' E 028°03'4016.5
2014-Jul-22 18:08N 33°01' E 027°18'1016.8
2014-Jul-22 17:33N 33°04' E 027°07'2517.0
2014-Jul-22 16:06N 33°12' E 026°39'917.2
2014-Jul-22 15:33N 33°14' E 026°28'1817.6
2014-Jul-22 14:33N 33°20' E 026°08'24017.1
2014-Jul-22 00:30N 34°31' E 021°31'32718.2
2014-Jul-21 06:33N 36°08' E 015°09'2020.1
2014-Jul-21 05:33N 36°14' E 014°45'2020.1
2014-Jul-21 04:33N 36°21' E 014°22'2019.9
2014-Jul-21 03:33N 36°28' E 013°59'2020.0
2014-Jul-21 02:33N 36°35' E 013°35'2020.0
2014-Jul-21 01:33N 36°41' E 013°12'2120.5
2014-Jul-21 00:33N 36°48' E 012°48'2120.6
2014-Jul-20 23:33N 36°55' E 012°23'2020.3
2014-Jul-20 22:33N 37°03' E 011°60'16420.3
2014-Jul-20 14:29N 37°52' E 008°42'10020.3
2014-Jul-20 09:33N 37°46' E 006°36'2020.3
2014-Jul-20 08:33N 37°44' E 006°10'2420.3
2014-Jul-20 07:23N 37°42' E 005°40'3232.9
2014-Jul-20 06:24N 38°07' E 005°15'3334.4
2014-Jul-20 05:26N 37°40' E 004°51'1719.8
2014-Jul-20 04:33N 37°39' E 004°29'2019.8
2014-Jul-20 03:32N 37°37' E 004°03'2020.2
2014-Jul-20 02:32N 37°36' E 003°38'2020.3
2014-Jul-20 01:33N 37°35' E 003°13'2020.1
2014-Jul-20 00:33N 37°32' E 002°48'2020.2
2014-Jul-19 23:33N 37°26' E 002°23'2020.3
2014-Jul-19 22:33N 37°20' E 001°59'2020.5
2014-Jul-19 21:33N 37°15' E 001°34'2120.7
2014-Jul-19 20:33N 37°09' E 001°09'2721.0
2014-Jul-19 19:16N 37°01' E 000°37'3820.3
2014-Jul-19 17:23N 36°50' W 000°09'1720.2
2014-Jul-19 16:33N 36°46' W 000°29'2019.9
2014-Jul-19 15:33N 36°40' W 000°53'2019.8
2014-Jul-19 14:33N 36°35' W 001°17'2221.2
2014-Jul-19 13:31N 36°28' W 001°43'1717.8
2014-Jul-19 12:33N 36°23' W 002°04'2019.6
2014-Jul-19 11:33N 36°19' W 002°27'27020.1
2014-Jul-18 22:06N 36°02' W 008°02'3920.5
2014-Jul-18 20:13N 36°12' W 008°48'1320.3
2014-Jul-18 19:33N 36°15' W 009°04'2320.2
2014-Jul-18 18:25N 36°22' W 009°31'6120.1
2014-Jul-18 15:24N 37°15' W 010°09'  
Track history (hours):
 
Tides and Currents Weather Stations Pressure Air Temp Water Temp Dewpoint Dewpoint Depression Visibility Wind Speed Wind Dir Waves Ship Positions

Al Kharsaah

Last reported at 2014-Jul-24 06:08 UTC. Time now 2014-Aug-01 05:50 UTC.
Position N 30°20' E 032°22'.

Length 315 m; draft 9.4 m.

Type: Ship (hazmat cat D). MMSI: 309333000.

Date/timePositionNaut miles runAvg speedWind from/ knotsBaromVisibWave heightAir tempDewpointWater temp
2014-Jul-24 06:08N 30°20' E 032°22'30 5.1
2014-Jul-24 00:16N 30°50' E 032°19'14 8.4
2014-Jul-23 22:33N 31°04' E 032°19'10 7.6
2014-Jul-23 21:11N 31°15' E 032°21'710.9
2014-Jul-23 20:33N 31°21' E 032°23'5 2.4
2014-Jul-23 18:29N 31°24' E 032°18'0 0.0
2014-Jul-23 14:06N 31°24' E 032°18'0 0.0
2014-Jul-23 13:32N 31°24' E 032°18'0 0.0
2014-Jul-23 12:31N 31°24' E 032°18'0 0.2
2014-Jul-23 11:31N 31°24' E 032°18'3 2.7
2014-Jul-23 10:32N 31°26' E 032°16'1313.6
2014-Jul-23 09:33N 31°37' E 032°07'1717.3
2014-Jul-23 08:33N 31°49' E 031°52'1817.5
2014-Jul-23 07:33N 31°53' E 031°32'1717.3
2014-Jul-23 06:33N 31°59' E 031°13'1717.5
2014-Jul-23 05:33N 32°04' E 030°53'1817.7
2014-Jul-23 04:33N 32°10' E 030°33'1717.6
2014-Jul-23 03:33N 32°15' E 030°14'1717.1
2014-Jul-23 02:33N 32°20' E 029°54'1717.0
2014-Jul-23 01:33N 32°25' E 029°35'1716.6
2014-Jul-23 00:33N 32°29' E 029°16'1616.3
2014-Jul-22 23:33N 32°35' E 028°58'1615.9
2014-Jul-22 22:33N 32°40' E 028°40'1616.0
2014-Jul-22 21:33N 32°44' E 028°21'1616.0
2014-Jul-22 20:33N 32°49' E 028°03'4016.5
2014-Jul-22 18:08N 33°01' E 027°18'1016.8
2014-Jul-22 17:33N 33°04' E 027°07'2517.0
2014-Jul-22 16:06N 33°12' E 026°39'917.2
2014-Jul-22 15:33N 33°14' E 026°28'1817.6
2014-Jul-22 14:33N 33°20' E 026°08'24017.1
2014-Jul-22 00:30N 34°31' E 021°31'32718.2
2014-Jul-21 06:33N 36°08' E 015°09'2020.1
2014-Jul-21 05:33N 36°14' E 014°45'2020.1
2014-Jul-21 04:33N 36°21' E 014°22'2019.9
2014-Jul-21 03:33N 36°28' E 013°59'2020.0
2014-Jul-21 02:33N 36°35' E 013°35'2020.0
2014-Jul-21 01:33N 36°41' E 013°12'2120.5
2014-Jul-21 00:33N 36°48' E 012°48'2120.6
2014-Jul-20 23:33N 36°55' E 012°23'2020.3
2014-Jul-20 22:33N 37°03' E 011°60'16420.3
2014-Jul-20 14:29N 37°52' E 008°42'10020.3
2014-Jul-20 09:33N 37°46' E 006°36'2020.3
2014-Jul-20 08:33N 37°44' E 006°10'2420.3
2014-Jul-20 07:23N 37°42' E 005°40'3232.9
2014-Jul-20 06:24N 38°07' E 005°15'3334.4
2014-Jul-20 05:26N 37°40' E 004°51'1719.8
2014-Jul-20 04:33N 37°39' E 004°29'2019.8
2014-Jul-20 03:32N 37°37' E 004°03'2020.2
2014-Jul-20 02:32N 37°36' E 003°38'2020.3
2014-Jul-20 01:33N 37°35' E 003°13'2020.1
2014-Jul-20 00:33N 37°32' E 002°48'2020.2
2014-Jul-19 23:33N 37°26' E 002°23'2020.3
2014-Jul-19 22:33N 37°20' E 001°59'2020.5
2014-Jul-19 21:33N 37°15' E 001°34'2120.7
2014-Jul-19 20:33N 37°09' E 001°09'2721.0
2014-Jul-19 19:16N 37°01' E 000°37'3820.3
2014-Jul-19 17:23N 36°50' W 000°09'1720.2
2014-Jul-19 16:33N 36°46' W 000°29'2019.9
2014-Jul-19 15:33N 36°40' W 000°53'2019.8
2014-Jul-19 14:33N 36°35' W 001°17'2221.2
2014-Jul-19 13:31N 36°28' W 001°43'1717.8
2014-Jul-19 12:33N 36°23' W 002°04'2019.6
2014-Jul-19 11:33N 36°19' W 002°27'27020.1
2014-Jul-18 22:06N 36°02' W 008°02'3920.5
2014-Jul-18 20:13N 36°12' W 008°48'1320.3
2014-Jul-18 19:33N 36°15' W 009°04'2320.2
2014-Jul-18 18:25N 36°22' W 009°31'6120.1
2014-Jul-18 15:24N 37°15' W 010°09'  

Dump ship's entire track history